Language selection

My Weather Profile Weather Topics  | 

Strait of Belle Isle - western half: Past 24 Hour Conditions

 

West Chedabucto Bay - 44489

07:00 PM ADT 20 October 2021Buoy position: 45.49N 61.14W
Disclaimer

This table is a summary of hourly weather conditions for the past 24 hours.
Please note that these observations might not always be representative of weather conditions over their associated marine area.

Date / Time
(ADT)
Wind(knots) Wave height(m) Wave period(s) Pressure(kPa) Air tempC) Water tempC)
20 October 2021
19:00 N/A N/A N/A N/A N/A N/A
18:00 NW 15 gust 18 0.4 3.1 100.7 12 15
17:00 NW 20 gust 24 0.5 3.0 100.6 13 15
16:00 NW 17 gust 21 0.4 3.7 100.5 13 15
15:00 NW 19 gust 24 0.4 3.7 100.4 13 15
14:00 NNW 18 gust 23 0.5 3.5 100.4 12 15
13:00 NW 21 gust 25 0.5 3.3 100.4 12 15
12:00 NW 17 gust 20 0.5 3.7 100.4 12 15
11:00 NW 15 gust 19 0.4 4.4 100.4 12 15
10:00 NW 13 gust 16 0.5 5.6 100.4 10 15
9:00 NW 12 gust 15 0.4 5.8 100.4 10 15
8:00 NW 11 gust 13 0.4 6.6 100.3 10 15
7:00 NW 13 gust 15 0.5 6.0 100.3 10 15
6:00 NW 13 gust 15 0.5 6.2 100.3 10 15
5:00 NNW 11 gust 13 0.5 7.4 100.3 10 15
4:00 NW 11 gust 13 0.5 8.0 100.2 10 15
3:00 NNW 10 gust 11 0.5 8.0 100.2 10 15
2:00 NW 9 gust 11 0.5 7.9 100.2 10 15
1:00 NNW 10 gust 12 0.5 8.3 100.2 11 15
0:00 NW 7 gust 9 0.5 8.1 100.2 11 15
19 October 2021
23:00 NNW 5 gust 6 0.5 8.4 100.3 10 15
22:00 N 6 gust 8 0.5 8.2 100.2 11 15
21:00 NNW 11 gust 13 0.5 7.6 100.2 11 15
20:00 NNW 13 gust 17 0.5 7.1 100.2 11 15
19:00 SSW 11 gust 13 0.5 4.9 100.2 13 15

Zoom-in to make a selection

Map of Atlantic - Newfoundland marine weather areas Banquereau - 44139 East Chedabucto Bay - 44488 West Chedabucto Bay - 44489 Blanc-Sablon Airport Cap Whittle Chevery Natashquan Airport Heath Point Îles de la Madeleine Airport Miscou Island Eskasoni (First Nations) Grand Étang Ingonish Beach North Mountain St.Paul Island J.A. Douglas McCurdy Sydney Airport Charlottetown Airport East Point North Cape Argentia Bonavista Burgeo Cape Race Corner Brook Daniel's Harbour Englee Ferolle Point La Scie Port aux Basques Rocky Harbour Sagona Island St. Anthony Airport St. John's Int'l Airport St. Lawrence Stephenville Airport Twillingate Winterland Branch Hill Wreckhouse Grates Cove Pool's Island Marticot Island Long Pond Cartwright Airport Mary's Harbour
Legend:
buoy Buoy
land station Land Station

Atlantic - Newfoundland Area

Another Region

What we are doing

Date modified: